createdAt,value
2023-11-16T00:01:29.335Z,98793.03
2023-11-16T00:03:56.226Z,98791.00
2023-11-16T00:06:23.413Z,98775.81
2023-11-16T00:08:50.336Z,98780.06
2023-11-16T00:11:18.950Z,98775.53
2023-11-16T00:13:47.426Z,98774.59
2023-11-16T00:16:17.922Z,98776.44
2023-11-16T00:18:44.981Z,98776.13
2023-11-16T00:21:11.819Z,98750.75
2023-11-16T00:23:38.775Z,98758.38
2023-11-16T00:26:05.746Z,98747.69
2023-11-16T00:28:32.638Z,98757.75
2023-11-16T00:30:59.414Z,98762.56
2023-11-16T00:33:27.366Z,98767.34
2023-11-16T00:35:59.641Z,98773.81
2023-11-16T00:38:29.482Z,98773.25
2023-11-16T00:40:56.580Z,98773.66
2023-11-16T00:43:25.145Z,98778.78
2023-11-16T00:45:53.368Z,98747.69
2023-11-16T00:48:20.676Z,98790.94
2023-11-16T00:50:47.821Z,98774.19
2023-11-16T00:53:15.154Z,98746.94
2023-11-16T00:55:42.546Z,98783.13
2023-11-16T00:58:09.719Z,98771.25
2023-11-16T01:00:36.490Z,98771.41
2023-11-16T01:03:07.414Z,98769.00
2023-11-16T01:05:34.586Z,98766.22
2023-11-16T01:08:01.330Z,98752.53
2023-11-16T01:10:31.140Z,98764.06
2023-11-16T01:13:01.120Z,98767.56
2023-11-16T01:15:27.987Z,98765.97
2023-11-16T01:17:54.918Z,98767.25
2023-11-16T01:20:24.614Z,98763.13
2023-11-16T01:23:11.841Z,98768.63
2023-11-16T01:25:42.497Z,98765.31
2023-11-16T01:28:10.919Z,98768.31
2023-11-16T01:30:38.472Z,98767.16
2023-11-16T01:33:09.351Z,98770.97
2023-11-16T01:35:38.302Z,98770.66
2023-11-16T01:38:07.072Z,98766.28
2023-11-16T01:40:34.962Z,98771.25
2023-11-16T01:43:02.358Z,98772.81
2023-11-16T01:45:34.728Z,98780.78
2023-11-16T01:48:08.183Z,98774.09
2023-11-16T01:50:37.224Z,98779.84
2023-11-16T01:53:10.715Z,98782.19
2023-11-16T01:55:41.276Z,98779.63
2023-11-16T01:58:10.736Z,98769.13
2023-11-16T02:00:42.686Z,98769.66
2023-11-16T02:03:11.021Z,98772.38
2023-11-16T02:05:38.334Z,98767.66
2023-11-16T02:08:12.021Z,98769.66
2023-11-16T02:10:41.098Z,98772.50
2023-11-16T02:13:27.506Z,98770.03
2023-11-16T02:15:57.402Z,98766.50
2023-11-16T02:18:26.648Z,98791.59
2023-11-16T02:20:56.149Z,98792.44
2023-11-16T02:23:23.324Z,98777.59
2023-11-16T02:25:52.296Z,98775.47
2023-11-16T02:28:20.608Z,98789.88
2023-11-16T02:30:48.445Z,98777.44
2023-11-16T02:33:15.286Z,98793.38
2023-11-16T02:35:43.104Z,98796.66
2023-11-16T02:38:14.028Z,98800.44
2023-11-16T02:40:41.469Z,98802.91
2023-11-16T02:43:08.509Z,98798.03
2023-11-16T02:45:35.625Z,98786.81
2023-11-16T02:48:04.752Z,98798.69
2023-11-16T02:50:32.140Z,98796.53
2023-11-16T02:52:59.070Z,98795.78
2023-11-16T02:55:25.836Z,98786.97
2023-11-16T02:57:58.922Z,98789.28
2023-11-16T03:00:26.519Z,98781.31
2023-11-16T03:02:55.359Z,98794.09
2023-11-16T03:05:24.818Z,98802.69
2023-11-16T03:07:52.003Z,98807.72
2023-11-16T03:10:19.030Z,98772.31
2023-11-16T03:12:47.048Z,98798.97
2023-11-16T03:15:14.642Z,98815.63
2023-11-16T03:17:45.034Z,98818.84
2023-11-16T03:20:13.843Z,98807.00
2023-11-16T03:22:41.274Z,98807.75
2023-11-16T03:25:11.601Z,98819.63
2023-11-16T03:27:38.816Z,98825.06
2023-11-16T03:30:07.366Z,98814.00
2023-11-16T03:32:34.496Z,98821.88
2023-11-16T03:35:01.293Z,98813.06
2023-11-16T03:37:28.082Z,98828.59
2023-11-16T03:39:55.886Z,98839.50
2023-11-16T03:42:22.694Z,98836.81
2023-11-16T03:44:51.440Z,98848.72
2023-11-16T03:47:18.596Z,98844.53
2023-11-16T03:49:45.504Z,98840.44
2023-11-16T03:52:12.636Z,98810.84
2023-11-16T03:54:39.477Z,98815.59
2023-11-16T03:57:06.471Z,98827.56
2023-11-16T03:59:34.291Z,98836.06
2023-11-16T04:02:01.151Z,98834.91
2023-11-16T04:04:30.055Z,98823.91
2023-11-16T04:06:57.134Z,98827.66
2023-11-16T04:09:25.421Z,98829.69
2023-11-16T04:11:54.509Z,98819.63
2023-11-16T04:14:21.289Z,98816.63
2023-11-16T04:16:54.123Z,98816.91
2023-11-16T04:19:22.393Z,98815.19
2023-11-16T04:21:51.905Z,98811.34
2023-11-16T04:24:19.825Z,98826.22
2023-11-16T04:26:49.813Z,98825.59
2023-11-16T04:29:17.421Z,98830.38
2023-11-16T04:31:46.048Z,98820.38
2023-11-16T04:34:13.591Z,98833.13
2023-11-16T04:36:43.314Z,98827.16
2023-11-16T04:39:13.232Z,98829.75
2023-11-16T04:41:43.706Z,98840.72
2023-11-16T04:44:10.472Z,98834.63
2023-11-16T04:46:37.958Z,98833.94
2023-11-16T04:49:06.118Z,98842.91
2023-11-16T04:51:33.384Z,98808.63
2023-11-16T04:54:00.213Z,98835.72
2023-11-16T04:56:26.960Z,98840.59
2023-11-16T04:58:53.769Z,98836.81
2023-11-16T05:01:20.567Z,98832.53
2023-11-16T05:03:47.603Z,98835.19
2023-11-16T05:06:15.233Z,98825.63
2023-11-16T05:08:42.817Z,98814.88
2023-11-16T05:11:09.727Z,98834.53
2023-11-16T05:13:36.543Z,98832.59
2023-11-16T05:16:05.583Z,98839.13
2023-11-16T05:18:32.847Z,98844.94
2023-11-16T05:21:02.400Z,98835.72
2023-11-16T05:23:29.350Z,98829.50
2023-11-16T05:25:57.975Z,98825.88
2023-11-16T05:28:27.251Z,98845.13
2023-11-16T05:30:54.454Z,98834.19
2023-11-16T05:33:24.131Z,98842.91
2023-11-16T05:35:54.993Z,98850.88
2023-11-16T05:38:23.722Z,98851.03
2023-11-16T05:40:53.218Z,98850.00
2023-11-16T05:43:21.171Z,98857.78
2023-11-16T05:45:48.242Z,98844.38
2023-11-16T05:48:15.899Z,98846.50
2023-11-16T05:50:44.088Z,98839.44
2023-11-16T05:53:12.385Z,98836.50
2023-11-16T05:55:39.839Z,98829.66
2023-11-16T05:58:10.747Z,98835.84
2023-11-16T06:00:38.921Z,98832.47
2023-11-16T06:03:07.366Z,98836.69
2023-11-16T06:05:37.413Z,98838.47
2023-11-16T06:08:04.842Z,98831.06
2023-11-16T06:10:32.938Z,98815.34
2023-11-16T06:13:01.587Z,98826.44
2023-11-16T06:15:31.726Z,98823.00
2023-11-16T06:18:02.878Z,98817.56
2023-11-16T06:20:32.993Z,98837.66
2023-11-16T06:23:00.407Z,98824.25
2023-11-16T06:25:27.393Z,98829.78
2023-11-16T06:27:54.303Z,98836.19
2023-11-16T06:30:21.303Z,98847.00
2023-11-16T06:32:49.010Z,98850.31
2023-11-16T06:35:16.218Z,98841.94
2023-11-16T06:37:44.935Z,98840.53
2023-11-16T06:40:13.442Z,98842.72
2023-11-16T06:42:41.895Z,98829.16
2023-11-16T06:45:10.053Z,98831.13
2023-11-16T06:47:37.329Z,98832.81
2023-11-16T06:50:05.315Z,98858.16
2023-11-16T06:52:34.058Z,98861.41
2023-11-16T06:55:01.651Z,98856.50
2023-11-16T06:57:28.737Z,98830.69
2023-11-16T06:59:55.791Z,98855.88
2023-11-16T07:02:23.788Z,98855.22
2023-11-16T07:04:50.934Z,98846.53
2023-11-16T07:07:18.584Z,98848.72
2023-11-16T07:09:51.425Z,98844.34
2023-11-16T07:12:22.150Z,98843.56
2023-11-16T07:14:53.689Z,98840.81
2023-11-16T07:17:21.736Z,98830.97
2023-11-16T07:19:49.575Z,98828.41
2023-11-16T07:22:16.529Z,98831.03
2023-11-16T07:24:45.451Z,98820.91
2023-11-16T07:27:13.570Z,98822.72
2023-11-16T07:29:42.415Z,98819.75
2023-11-16T07:32:09.200Z,98815.69
2023-11-16T07:34:38.983Z,98785.47
2023-11-16T07:37:05.869Z,98817.94
2023-11-16T07:39:33.074Z,98812.47
2023-11-16T07:42:00.656Z,98816.88
2023-11-16T07:44:28.205Z,98817.81
2023-11-16T07:46:55.538Z,98822.34
2023-11-16T07:49:22.445Z,98824.78
2023-11-16T07:51:49.340Z,98815.47
2023-11-16T07:54:19.723Z,98823.44
2023-11-16T07:56:58.482Z,98829.97
2023-11-16T07:59:32.481Z,98820.50
2023-11-16T08:02:02.144Z,98822.41
2023-11-16T08:04:31.009Z,98821.72
2023-11-16T08:07:00.848Z,98828.84
2023-11-16T08:09:32.574Z,98834.63
2023-11-16T08:12:01.282Z,98833.34
2023-11-16T08:14:32.352Z,98826.63
2023-11-16T08:17:00.328Z,98823.97
2023-11-16T08:19:27.861Z,98828.28
2023-11-16T08:21:58.461Z,98825.59
2023-11-16T08:24:27.618Z,98823.94
2023-11-16T08:26:59.870Z,98818.91
2023-11-16T08:29:27.194Z,98804.19
2023-11-16T08:31:57.693Z,98813.22
2023-11-16T08:34:29.062Z,98824.97
2023-11-16T08:36:56.805Z,98818.13
2023-11-16T08:39:24.746Z,98797.03
2023-11-16T08:41:54.237Z,98823.88
2023-11-16T08:44:23.864Z,98817.25
2023-11-16T08:46:57.237Z,98819.09
2023-11-16T08:49:24.534Z,98807.13
2023-11-16T08:52:00.216Z,98816.00
2023-11-16T08:54:29.469Z,98814.53
2023-11-16T08:56:57.422Z,98827.16
2023-11-16T08:59:24.555Z,98833.53
2023-11-16T09:01:51.577Z,98817.19
2023-11-16T09:04:18.906Z,98817.38
2023-11-16T09:06:45.983Z,98815.69
2023-11-16T09:09:31.579Z,98811.22
2023-11-16T09:11:58.724Z,98808.78
2023-11-16T09:14:27.876Z,98803.31
2023-11-16T09:17:12.226Z,98792.97
2023-11-16T09:19:41.815Z,98791.66
2023-11-16T09:22:10.704Z,98782.31
2023-11-16T09:24:38.337Z,98775.53
2023-11-16T09:27:05.842Z,98776.38
2023-11-16T09:29:34.434Z,98773.25
2023-11-16T09:32:01.248Z,98772.16
2023-11-16T09:34:28.559Z,98766.78
2023-11-16T09:36:55.493Z,98760.00
2023-11-16T09:39:23.328Z,98756.63
2023-11-16T09:41:50.894Z,98747.88
2023-11-16T09:44:20.046Z,98734.25
2023-11-16T09:46:48.520Z,98718.13
2023-11-16T09:49:18.731Z,98718.19
2023-11-16T09:51:47.251Z,98706.44
2023-11-16T09:54:15.852Z,98713.53
2023-11-16T09:56:49.807Z,98704.41
2023-11-16T09:59:26.547Z,98708.00
2023-11-16T10:02:08.566Z,98700.13
2023-11-16T10:04:36.476Z,98692.25
2023-11-16T10:07:06.627Z,98692.50
2023-11-16T10:09:46.004Z,98680.06
2023-11-16T10:12:13.662Z,98675.69
2023-11-16T10:14:41.695Z,98672.50
2023-11-16T10:17:08.705Z,98675.34
2023-11-16T10:19:35.915Z,98658.78
2023-11-16T10:22:02.857Z,98654.38
2023-11-16T10:24:34.667Z,98647.56
2023-11-16T10:27:02.660Z,98623.31
2023-11-16T10:29:29.546Z,98625.94
2023-11-16T10:31:58.038Z,98616.00
2023-11-16T10:34:25.976Z,98608.75
2023-11-16T10:37:02.169Z,98612.41
2023-11-16T10:39:29.275Z,98593.97
2023-11-16T10:41:59.689Z,98599.16
2023-11-16T10:44:30.609Z,98591.09
2023-11-16T10:46:58.942Z,98579.59
2023-11-16T10:49:28.759Z,98577.38
2023-11-16T10:52:00.096Z,98568.31
2023-11-16T10:54:29.062Z,98566.47
2023-11-16T10:56:56.072Z,98561.06
2023-11-16T10:59:28.626Z,98554.00
2023-11-16T11:01:58.323Z,98525.63
2023-11-16T11:04:27.005Z,98535.03
2023-11-16T11:06:56.725Z,98529.59
2023-11-16T11:09:42.182Z,98522.00
2023-11-16T11:12:17.249Z,98513.25
2023-11-16T11:14:47.995Z,98502.03
2023-11-16T11:17:18.371Z,98492.88
2023-11-16T11:19:55.144Z,98507.81
2023-11-16T11:22:25.043Z,98499.22
2023-11-16T11:24:51.663Z,98504.06
2023-11-16T11:27:18.442Z,98492.38
2023-11-16T11:29:45.110Z,98492.41
2023-11-16T11:32:26.983Z,98481.88
2023-11-16T11:34:53.686Z,98487.28
2023-11-16T11:37:20.305Z,98476.19
2023-11-16T11:39:48.003Z,98477.78
2023-11-16T11:42:15.859Z,98477.41
2023-11-16T11:44:52.777Z,98465.53
2023-11-16T11:47:21.910Z,98468.59
2023-11-16T11:49:49.537Z,98456.31
2023-11-16T11:52:17.675Z,98451.47
2023-11-16T11:54:46.436Z,98457.44
2023-11-16T11:57:13.157Z,98447.28
2023-11-16T11:59:39.758Z,98446.81
2023-11-16T12:02:10.266Z,98439.13
2023-11-16T12:04:37.581Z,98430.38
2023-11-16T12:07:11.058Z,98423.41
2023-11-16T12:09:38.409Z,98416.28
2023-11-16T12:12:05.826Z,98405.00
2023-11-16T12:14:47.272Z,98399.09
2023-11-16T12:17:15.459Z,98398.06
2023-11-16T12:19:42.214Z,98381.09
2023-11-16T12:22:09.944Z,98380.41
2023-11-16T12:24:36.631Z,98376.28
2023-11-16T12:27:05.325Z,98373.69
2023-11-16T12:29:32.803Z,98369.75
2023-11-16T12:32:00.236Z,98359.22
2023-11-16T12:34:27.628Z,98356.63
2023-11-16T12:36:59.643Z,98350.38
2023-11-16T12:39:26.844Z,98334.53
2023-11-16T12:41:54.921Z,98346.06
2023-11-16T12:44:22.512Z,98339.72
2023-11-16T12:46:49.139Z,98327.84
2023-11-16T12:49:16.058Z,98324.88
2023-11-16T12:51:42.987Z,98327.47
2023-11-16T12:54:09.605Z,98316.00
2023-11-16T12:56:36.384Z,98311.00
2023-11-16T12:59:03.998Z,98307.50
2023-11-16T13:01:33.537Z,98301.16
2023-11-16T13:04:00.338Z,98298.97
2023-11-16T13:06:27.143Z,98293.38
2023-11-16T13:08:53.756Z,98295.50
2023-11-16T13:11:20.418Z,98288.13
2023-11-16T13:13:47.129Z,98295.53
2023-11-16T13:16:14.162Z,98280.63
2023-11-16T13:18:40.987Z,98284.94
2023-11-16T13:21:11.494Z,98269.53
2023-11-16T13:23:43.008Z,98270.72
2023-11-16T13:26:10.659Z,98269.88
2023-11-16T13:28:37.391Z,98246.66
2023-11-16T13:31:05.173Z,98252.34
2023-11-16T13:33:32.926Z,98242.00
2023-11-16T13:36:01.338Z,98235.06
2023-11-16T13:38:30.009Z,98223.31
2023-11-16T13:40:57.609Z,98219.47
2023-11-16T13:43:25.651Z,98210.72
2023-11-16T13:45:52.419Z,98216.63
2023-11-16T13:48:19.152Z,98218.00
2023-11-16T13:50:45.733Z,98210.19
2023-11-16T13:53:13.188Z,98199.09
2023-11-16T13:55:40.740Z,98209.78
2023-11-16T13:58:07.522Z,98200.31
2023-11-16T14:00:34.305Z,98188.47
2023-11-16T14:03:01.895Z,98188.94
2023-11-16T14:05:28.641Z,98179.16
2023-11-16T14:07:55.474Z,98180.28
2023-11-16T14:10:24.988Z,98181.81
2023-11-16T14:12:53.805Z,98170.72
2023-11-16T14:15:21.786Z,98165.78
2023-11-16T14:17:48.930Z,98156.53
2023-11-16T14:20:15.658Z,98162.16
2023-11-16T14:22:42.290Z,98149.94
2023-11-16T14:25:09.151Z,98151.13
2023-11-16T14:27:36.917Z,98144.63
2023-11-16T14:30:05.115Z,98130.19
2023-11-16T14:32:31.849Z,98129.28
2023-11-16T14:35:09.996Z,98122.84
2023-11-16T14:37:44.013Z,98124.34
2023-11-16T14:40:11.009Z,98108.06
2023-11-16T14:42:37.880Z,98108.31
2023-11-16T14:45:10.359Z,98095.03
2023-11-16T14:47:40.198Z,98094.03
2023-11-16T14:50:10.416Z,98090.09
2023-11-16T14:52:37.650Z,98075.22
2023-11-16T14:55:04.725Z,98086.41
2023-11-16T14:57:34.363Z,98073.47
2023-11-16T15:00:02.644Z,98059.56
2023-11-16T15:02:29.441Z,98062.28
2023-11-16T15:05:04.997Z,98050.81
2023-11-16T15:07:36.261Z,98033.38
2023-11-16T15:10:04.883Z,98038.19
2023-11-16T15:12:32.035Z,98027.13
2023-11-16T15:14:58.740Z,98013.22
2023-11-16T15:17:25.365Z,97998.03
2023-11-16T15:19:52.075Z,97990.25
2023-11-16T15:22:18.825Z,97988.03
2023-11-16T15:24:45.498Z,97974.31
2023-11-16T15:27:14.040Z,97970.56
2023-11-16T15:29:40.905Z,97976.56
2023-11-16T15:32:17.037Z,97977.13
2023-11-16T15:34:44.014Z,97985.00
2023-11-16T15:37:13.100Z,97981.22
2023-11-16T15:39:40.076Z,97991.84
2023-11-16T15:42:08.032Z,98004.59
2023-11-16T15:44:34.835Z,98016.56
2023-11-16T15:47:01.810Z,97999.13
2023-11-16T15:49:28.778Z,98010.13
2023-11-16T15:51:55.818Z,97987.50
2023-11-16T15:54:23.539Z,97999.47
2023-11-16T15:56:52.823Z,97984.00
2023-11-16T15:59:20.704Z,97992.00
2023-11-16T16:01:47.889Z,97987.66
2023-11-16T16:04:15.837Z,97983.47
2023-11-16T16:06:43.112Z,97982.47
2023-11-16T16:09:10.098Z,97981.06
2023-11-16T16:11:37.229Z,97967.13
2023-11-16T16:14:04.156Z,97959.03
2023-11-16T16:16:32.981Z,97947.38
2023-11-16T16:19:01.638Z,97946.00
2023-11-16T16:21:28.868Z,97950.34
2023-11-16T16:23:55.919Z,97942.88
2023-11-16T16:26:23.944Z,97931.00
2023-11-16T16:28:50.753Z,97941.34
2023-11-16T16:31:23.968Z,97942.72
2023-11-16T16:33:51.361Z,97929.44
2023-11-16T16:36:19.315Z,97931.09
2023-11-16T16:38:46.211Z,97931.53
2023-11-16T16:41:12.970Z,97934.72
2023-11-16T16:43:41.094Z,97934.19
2023-11-16T16:46:22.706Z,97926.50
2023-11-16T16:48:49.834Z,97924.22
2023-11-16T16:51:16.647Z,97930.50
2023-11-16T16:53:46.383Z,97937.13
2023-11-16T16:56:14.259Z,97941.19
2023-11-16T16:58:41.092Z,97940.31
2023-11-16T17:01:07.786Z,97939.19
2023-11-16T17:03:35.572Z,97951.69
2023-11-16T17:06:05.008Z,97952.84
2023-11-16T17:08:31.990Z,97965.22
2023-11-16T17:10:58.995Z,97957.03
2023-11-16T17:13:26.676Z,97974.47
2023-11-16T17:15:53.288Z,97971.38
2023-11-16T17:18:19.961Z,97971.78
2023-11-16T17:20:48.609Z,97969.84
2023-11-16T17:23:15.215Z,97957.06
2023-11-16T17:25:41.826Z,97959.34
2023-11-16T17:28:08.577Z,97964.91
2023-11-16T17:30:35.216Z,97952.84
2023-11-16T17:33:02.386Z,97943.56
2023-11-16T17:35:28.997Z,97946.19
2023-11-16T17:37:55.583Z,97926.88
2023-11-16T17:40:27.331Z,97927.28
2023-11-16T17:42:54.266Z,97918.16
2023-11-16T17:45:25.140Z,97909.13
2023-11-16T17:47:52.246Z,97889.84
2023-11-16T17:50:18.979Z,97889.72
2023-11-16T17:52:45.841Z,97887.44
2023-11-16T17:55:15.859Z,97887.09
2023-11-16T17:57:43.552Z,97881.88
2023-11-16T18:00:12.183Z,97885.47
2023-11-16T18:02:42.320Z,97880.97
2023-11-16T18:05:13.544Z,97879.59
2023-11-16T18:07:43.041Z,97878.59
2023-11-16T18:10:09.878Z,97871.88
2023-11-16T18:12:38.713Z,97882.03
2023-11-16T18:15:07.139Z,97871.63
2023-11-16T18:17:35.384Z,97865.88
2023-11-16T18:20:05.233Z,97860.41
2023-11-16T18:22:32.585Z,97865.34
2023-11-16T18:24:59.240Z,97855.56
2023-11-16T18:27:26.313Z,97848.00
2023-11-16T18:29:52.946Z,97852.34
2023-11-16T18:32:19.563Z,97850.25
2023-11-16T18:34:49.528Z,97852.50
2023-11-16T18:37:16.745Z,97848.31
2023-11-16T18:39:44.170Z,97843.50
2023-11-16T18:42:17.804Z,97845.22
2023-11-16T18:44:44.442Z,97842.53
2023-11-16T18:47:11.727Z,97842.78
2023-11-16T18:49:38.435Z,97840.56
2023-11-16T18:52:05.450Z,97826.84
2023-11-16T18:54:32.687Z,97821.63
2023-11-16T18:56:59.570Z,97812.41
2023-11-16T18:59:26.773Z,97808.63
2023-11-16T19:01:54.370Z,97806.53
2023-11-16T19:04:21.689Z,97812.00
2023-11-16T19:06:51.715Z,97800.94
2023-11-16T19:09:18.825Z,97806.38
2023-11-16T19:11:45.444Z,97809.75
2023-11-16T19:14:13.608Z,97824.34
2023-11-16T19:16:40.463Z,97821.69
2023-11-16T19:19:07.161Z,97806.53
2023-11-16T19:21:33.801Z,97804.72
2023-11-16T19:24:00.493Z,97820.13
2023-11-16T19:26:28.310Z,97806.53
2023-11-16T19:28:54.873Z,97809.50
2023-11-16T19:31:21.920Z,97808.34
2023-11-16T19:33:48.683Z,97814.38
2023-11-16T19:36:15.779Z,97808.50
2023-11-16T19:38:42.391Z,97802.47
2023-11-16T19:41:09.957Z,97793.06
2023-11-16T19:43:36.614Z,97796.94
2023-11-16T19:46:04.851Z,97783.53
2023-11-16T19:48:32.384Z,97787.97
2023-11-16T19:50:59.021Z,97780.88
2023-11-16T19:53:25.629Z,97780.16
2023-11-16T19:55:54.969Z,97778.06
2023-11-16T19:58:22.746Z,97773.56
2023-11-16T20:00:49.856Z,97770.91
2023-11-16T20:03:17.388Z,97768.03
2023-11-16T20:05:45.326Z,97765.72
2023-11-16T20:08:12.725Z,97765.00
2023-11-16T20:10:41.722Z,97764.88
2023-11-16T20:13:10.596Z,97767.47
2023-11-16T20:15:38.178Z,97749.66
2023-11-16T20:18:07.442Z,97746.66
2023-11-16T20:20:44.811Z,97744.50
2023-11-16T20:23:18.907Z,97730.84
2023-11-16T20:25:45.867Z,97725.47
2023-11-16T20:28:13.696Z,97716.84
2023-11-16T20:30:41.878Z,97714.75
2023-11-16T20:33:08.809Z,97713.38
2023-11-16T20:35:35.876Z,97709.56
2023-11-16T20:38:05.524Z,97705.50
2023-11-16T20:40:33.431Z,97697.53
2023-11-16T20:43:01.301Z,97683.38
2023-11-16T20:45:31.590Z,97680.88
2023-11-16T20:47:58.504Z,97667.84
2023-11-16T20:50:26.241Z,97670.75
2023-11-16T20:52:53.054Z,97650.91
2023-11-16T20:55:20.153Z,97636.06
2023-11-16T20:57:47.159Z,97654.28
2023-11-16T21:00:15.365Z,97656.66
2023-11-16T21:02:42.713Z,97653.00
2023-11-16T21:05:09.811Z,97650.78
2023-11-16T21:07:36.779Z,97643.25
2023-11-16T21:10:04.526Z,97631.75
2023-11-16T21:12:32.424Z,97626.56
2023-11-16T21:15:01.212Z,97622.78
2023-11-16T21:17:28.881Z,97614.41
2023-11-16T21:19:55.901Z,97610.63
2023-11-16T21:22:24.045Z,97607.69
2023-11-16T21:24:50.883Z,97617.06
2023-11-16T21:27:17.932Z,97617.59
2023-11-16T21:29:44.890Z,97609.22
2023-11-16T21:32:12.034Z,97615.47
2023-11-16T21:34:41.586Z,97603.34
2023-11-16T21:37:09.031Z,97598.44
2023-11-16T21:39:36.006Z,97603.91
2023-11-16T21:42:04.016Z,97602.78
2023-11-16T21:44:30.616Z,97599.81
2023-11-16T21:46:58.527Z,97591.16
2023-11-16T21:49:25.368Z,97588.34
2023-11-16T21:51:54.656Z,97589.06
2023-11-16T21:54:21.926Z,97587.94
2023-11-16T21:56:48.953Z,97587.25
2023-11-16T21:59:18.724Z,97591.88
2023-11-16T22:01:49.340Z,97587.41
2023-11-16T22:04:17.877Z,97590.06
2023-11-16T22:06:44.966Z,97589.78
2023-11-16T22:09:13.791Z,97590.47
2023-11-16T22:11:41.129Z,97590.34
2023-11-16T22:14:08.851Z,97585.63
2023-11-16T22:16:36.475Z,97571.97
2023-11-16T22:19:05.871Z,97567.53
2023-11-16T22:21:35.119Z,97576.59
2023-11-16T22:24:03.177Z,97567.59
2023-11-16T22:26:30.768Z,97573.88
2023-11-16T22:28:57.972Z,97572.66
2023-11-16T22:31:24.825Z,97561.34
2023-11-16T22:34:16.414Z,97552.41
2023-11-16T22:36:43.058Z,97542.59
2023-11-16T22:39:10.591Z,97531.72
2023-11-16T22:41:37.222Z,97530.03
2023-11-16T22:44:03.825Z,97528.13
2023-11-16T22:46:31.347Z,97527.06
2023-11-16T22:48:58.057Z,97520.78
2023-11-16T22:51:24.813Z,97518.69
2023-11-16T22:53:51.406Z,97525.13
2023-11-16T22:56:17.980Z,97519.16
2023-11-16T22:58:44.548Z,97510.28
2023-11-16T23:01:14.875Z,97516.41
2023-11-16T23:03:42.120Z,97511.25
2023-11-16T23:06:09.082Z,97505.13
2023-11-16T23:08:35.738Z,97510.94
2023-11-16T23:11:02.606Z,97499.25
2023-11-16T23:13:29.223Z,97494.75
2023-11-16T23:15:55.882Z,97505.13
2023-11-16T23:18:22.546Z,97506.34
2023-11-16T23:20:49.306Z,97502.22
2023-11-16T23:23:15.908Z,97492.88
2023-11-16T23:25:43.024Z,97496.34
2023-11-16T23:28:10.072Z,97491.81
2023-11-16T23:30:37.476Z,97502.38
2023-11-16T23:33:04.171Z,97498.34
2023-11-16T23:35:30.861Z,97505.97
2023-11-16T23:37:57.900Z,97496.69
2023-11-16T23:40:24.911Z,97480.28
2023-11-16T23:42:51.690Z,97478.53
2023-11-16T23:45:19.049Z,97467.72
2023-11-16T23:47:48.166Z,97467.06
2023-11-16T23:50:14.990Z,97458.38
2023-11-16T23:52:41.655Z,97445.63
2023-11-16T23:55:10.275Z,97437.34
2023-11-16T23:57:38.647Z,97430.72
